Skip Navigation Links Skip Navigation Links

Current Weather

Luke AFB, Glendale, Ariz.

For information only: do not use for flight planning or navigation.
Latest weather
Observation time Monday, October 18, 2021 11:58 AM MST
Local time Monday, October 18, 2021 12:49 PM MST
Flight conditions Visual Meteorological Conditions
Winds
Wind direction South-Southwest (210°)
Wind speed 6 mph
Visibility 10 mi.
Sky condition
Ceiling unlimited
Sky clear
Temperature 79°F
Dewpoint 48°F
Altimeter 29.85 in.Hg
Derived measurements
Relative humidity 34%
Heat index 79°F
Density altitude 2626 ft.
Sea-level pressure 29.82 in.Hg
Remarks
System requires maintenance.
Automated weather observing station with precipitation discriminator.
METAR KLUF 181858Z 21005KT 10SM CLR 26/09 A2985 RMK AO2A SLP098 T02620091 $

Settings

Location code

InnerDrive.Weather 4.0.6770.0 Release CLR 4.0.30319.42000
Copyright ©2018 Inner Drive Technology. All rights reserved. Portions Copyright ©1986-2018 David Braverman.

Find weather

Site navigation


Skip Navigation Links

Place info

Page info

PayPal - The safer, easier way to pay online!

Return home.

Copyright ©2021 Inner Drive Technology. Purveyors of fine, hand-crafted computer software. Page printed 2021-10-18T19:49:26 UTC.